aviador You're here:

CYZU Decoded Metar

WHITECOURT in AB, CANADA
Report Time2017-12-15 19:00:00
UTC Time2017-12-15 19:52:28
Flight Rules vfr VFR
Wind310° at 22 Gusting to 35 kt
W.Decomp.*RWY 29: 22.0 kt HW 0.4 kt RCW
W.Rank310° ranks 3
Current wind is above 310° avg. (8.8)
Visibility9999 m
Phenomena:N/A
Clouds:Few 060 Hf
Expected CloudBase > 4,400 ft AGL from Temp-Dew spread
CeilingNone
Temp04°C (ISA -6)
Dew Point-7°C (45% RH)
AAT-6.7°C
QNH1006 hPa
Density Alt2,162 ft
Elevation2,575 ft
Report Wrong Elevation
Raw Report
CYZU 151900Z 31022G35KT 15SM FEW060 04/M07 A2970 RMK SC1
SLP088=

Extra information for CYZU:More info

Metar Taf Metar & Taf Last 4 Metars F.Rules Stats Wind Profile Meteogram Temp Stats Airport Information Weather charts Add Link Nearby VenuesMetar ALERT Operation Metar Decoded Social comments